createdAt,value
2019-02-08T00:01:39.878Z,81.16
2019-02-08T00:04:08.802Z,81.05
2019-02-08T00:06:37.868Z,81.26
2019-02-08T00:09:09.773Z,81.24
2019-02-08T00:11:38.696Z,81.51
2019-02-08T00:14:08.088Z,80.78
2019-02-08T00:16:37.015Z,81.09
2019-02-08T00:19:06.385Z,81.19
2019-02-08T00:21:44.529Z,81.28
2019-02-08T00:24:13.551Z,81.23
2019-02-08T00:26:42.574Z,81.32
2019-02-08T00:29:11.549Z,81.46
2019-02-08T00:31:40.800Z,81.39
2019-02-08T00:34:09.625Z,81.70
2019-02-08T00:36:38.642Z,81.94
2019-02-08T00:39:11.009Z,82.08
2019-02-08T00:41:40.029Z,82.21
2019-02-08T00:44:09.214Z,82.34
2019-02-08T00:46:38.166Z,82.29
2019-02-08T00:49:07.114Z,82.47
2019-02-08T00:51:35.964Z,82.54
2019-02-08T00:54:05.160Z,82.92
2019-02-08T00:56:33.933Z,82.78
2019-02-08T00:59:02.799Z,82.78
2019-02-08T01:01:31.570Z,82.57
2019-02-08T01:04:00.657Z,82.73
2019-02-08T01:06:29.544Z,82.75
2019-02-08T01:08:58.767Z,82.93
2019-02-08T01:11:27.870Z,82.78
2019-02-08T01:13:56.660Z,82.42
2019-02-08T01:16:26.168Z,82.57
2019-02-08T01:18:55.204Z,82.55
2019-02-08T01:21:24.358Z,82.54
2019-02-08T01:23:53.212Z,82.38
2019-02-08T01:26:22.028Z,82.53
2019-02-08T01:28:50.784Z,82.56
2019-02-08T01:31:19.753Z,82.68
2019-02-08T01:33:48.583Z,82.36
2019-02-08T01:36:17.586Z,82.40
2019-02-08T01:39:14.646Z,82.47
2019-02-08T01:41:43.965Z,82.84
2019-02-08T01:44:13.190Z,83.07
2019-02-08T01:46:42.052Z,83.26
2019-02-08T01:49:11.166Z,83.18
2019-02-08T01:51:40.025Z,83.33
2019-02-08T01:54:08.814Z,83.33
2019-02-08T01:56:37.795Z,83.52
2019-02-08T01:59:06.982Z,83.68
2019-02-08T02:01:35.955Z,83.43
2019-02-08T02:04:05.185Z,83.42
2019-02-08T02:06:34.542Z,83.15
2019-02-08T02:09:04.993Z,83.21
2019-02-08T02:11:34.519Z,83.15
2019-02-08T02:14:03.471Z,83.37
2019-02-08T02:16:32.597Z,83.20
2019-02-08T02:19:01.483Z,83.27
2019-02-08T02:21:30.506Z,83.16
2019-02-08T02:23:59.381Z,83.12
2019-02-08T02:26:29.374Z,83.22
2019-02-08T02:28:58.190Z,83.24
2019-02-08T02:31:27.105Z,83.20
2019-02-08T02:33:55.921Z,83.26
2019-02-08T02:36:24.699Z,83.38
2019-02-08T02:38:53.719Z,83.23
2019-02-08T02:41:22.640Z,83.37
2019-02-08T02:43:51.449Z,83.34
2019-02-08T02:46:20.321Z,83.43
2019-02-08T02:48:49.160Z,83.50
2019-02-08T02:51:20.705Z,83.36
2019-02-08T02:53:49.771Z,83.22
2019-02-08T02:56:18.566Z,83.15
2019-02-08T02:58:47.491Z,83.18
2019-02-08T03:01:16.712Z,83.30
2019-02-08T03:03:45.616Z,83.29
2019-02-08T03:06:14.473Z,83.21
2019-02-08T03:08:43.583Z,83.37
2019-02-08T03:11:12.368Z,83.38
2019-02-08T03:13:41.311Z,83.32
2019-02-08T03:16:10.238Z,83.34
2019-02-08T03:18:39.527Z,83.32
2019-02-08T03:21:08.313Z,83.14
2019-02-08T03:23:37.120Z,83.22
2019-02-08T03:26:05.986Z,83.14
2019-02-08T03:28:34.794Z,82.77
2019-02-08T03:31:03.866Z,83.06
2019-02-08T03:33:32.838Z,83.11
2019-02-08T03:36:01.700Z,83.17
2019-02-08T03:38:33.652Z,83.13
2019-02-08T03:41:02.583Z,82.98
2019-02-08T03:43:31.411Z,83.08
2019-02-08T03:46:00.552Z,83.23
2019-02-08T03:48:29.677Z,83.13
2019-02-08T03:50:58.701Z,83.06
2019-02-08T03:53:28.029Z,83.19
2019-02-08T03:55:58.807Z,83.24
2019-02-08T03:58:27.437Z,83.20
2019-02-08T04:01:02.160Z,83.15
2019-02-08T04:03:31.483Z,83.16
2019-02-08T04:06:00.400Z,83.11
2019-02-08T04:08:29.270Z,83.16
2019-02-08T04:10:58.582Z,82.94
2019-02-08T04:13:27.441Z,83.01
2019-02-08T04:15:56.268Z,82.94
2019-02-08T04:18:25.568Z,82.76
2019-02-08T04:20:54.576Z,82.71
2019-02-08T04:23:23.430Z,82.86
2019-02-08T04:25:52.824Z,82.52
2019-02-08T04:28:22.043Z,82.65
2019-02-08T04:30:50.923Z,82.70
2019-02-08T04:33:19.862Z,82.90
2019-02-08T04:35:49.039Z,82.59
2019-02-08T04:38:18.583Z,82.77
2019-02-08T04:40:47.650Z,82.69
2019-02-08T04:43:16.782Z,82.88
2019-02-08T04:45:45.685Z,82.96
2019-02-08T04:48:14.613Z,83.03
2019-02-08T04:50:44.373Z,82.99
2019-02-08T04:53:30.277Z,83.29
2019-02-08T04:55:59.159Z,83.19
2019-02-08T04:58:35.474Z,83.21
2019-02-08T05:00:58.557Z,83.23
2019-02-08T05:03:27.483Z,83.32
2019-02-08T05:05:56.462Z,83.43
2019-02-08T05:08:25.803Z,83.54
2019-02-08T05:10:54.854Z,83.70
2019-02-08T05:13:23.798Z,83.59
2019-02-08T05:15:53.017Z,83.65
2019-02-08T05:18:21.876Z,83.63
2019-02-08T05:20:51.290Z,83.59
2019-02-08T05:23:20.093Z,83.50
2019-02-08T05:25:49.023Z,83.38
2019-02-08T05:28:23.986Z,83.50
2019-02-08T05:30:53.029Z,83.19
2019-02-08T05:33:21.827Z,83.35
2019-02-08T05:35:50.862Z,83.38
2019-02-08T05:38:19.653Z,83.24
2019-02-08T05:40:48.464Z,83.17
2019-02-08T05:43:17.243Z,83.09
2019-02-08T05:45:49.776Z,82.79
2019-02-08T05:48:18.899Z,82.91
2019-02-08T05:50:47.668Z,82.65
2019-02-08T05:53:16.837Z,82.49
2019-02-08T05:55:45.944Z,82.34
2019-02-08T05:58:14.808Z,82.63
2019-02-08T06:00:56.861Z,82.25
2019-02-08T06:03:25.901Z,82.11
2019-02-08T06:05:55.516Z,82.31
2019-02-08T06:08:24.374Z,82.11
2019-02-08T06:10:53.426Z,82.10
2019-02-08T06:13:22.352Z,81.99
2019-02-08T06:15:51.207Z,81.74
2019-02-08T06:18:22.450Z,82.05
2019-02-08T06:20:51.347Z,81.72
2019-02-08T06:23:20.194Z,81.66
2019-02-08T06:25:49.115Z,81.86
2019-02-08T06:28:18.014Z,81.60
2019-02-08T06:30:47.057Z,82.29
2019-02-08T06:33:16.064Z,82.53
2019-02-08T06:35:50.897Z,82.62
2019-02-08T06:38:20.060Z,82.45
2019-02-08T06:40:49.235Z,81.93
2019-02-08T06:43:18.316Z,81.73
2019-02-08T06:45:47.286Z,81.80
2019-02-08T06:48:16.227Z,81.63
2019-02-08T06:50:45.476Z,80.86
2019-02-08T06:53:14.667Z,81.38
2019-02-08T06:55:43.621Z,81.22
2019-02-08T06:58:26.830Z,80.98
2019-02-08T07:01:02.351Z,80.43
2019-02-08T07:03:48.921Z,80.60
2019-02-08T07:10:14.457Z,80.57
2019-02-08T07:13:01.592Z,80.21
2019-02-08T07:15:37.661Z,80.35
2019-02-08T07:18:25.569Z,80.16
2019-02-08T07:21:13.713Z,80.18
2019-02-08T07:23:59.828Z,79.76
2019-02-08T07:26:39.868Z,79.64
2019-02-08T07:29:24.155Z,79.53
2019-02-08T07:32:27.092Z,79.39
2019-02-08T07:35:15.263Z,79.41
2019-02-08T07:38:08.273Z,78.89
2019-02-08T07:40:49.733Z,78.72
2019-02-08T07:43:29.688Z,78.59
2019-02-08T07:46:31.484Z,78.08
2019-02-08T07:49:28.854Z,77.99
2019-02-08T07:52:19.816Z,78.26
2019-02-08T07:55:06.240Z,78.05
2019-02-08T07:57:42.087Z,78.01
2019-02-08T08:00:45.386Z,78.33
2019-02-08T08:03:31.795Z,78.27
2019-02-08T08:06:16.842Z,77.93
2019-02-08T08:08:59.979Z,77.77
2019-02-08T08:11:53.004Z,78.24
2019-02-08T08:14:39.880Z,78.66
2019-02-08T08:17:26.642Z,78.29
2019-02-08T08:20:14.207Z,78.31
2019-02-08T08:23:04.931Z,78.55
2019-02-08T08:26:03.234Z,78.71
2019-02-08T08:28:42.805Z,78.60
2019-02-08T08:31:38.707Z,78.81
2019-02-08T08:34:13.332Z,78.94
2019-02-08T08:37:03.924Z,79.03
2019-02-08T08:40:07.618Z,79.18
2019-02-08T08:43:18.165Z,79.09
2019-02-08T08:46:40.344Z,79.19
2019-02-08T08:49:50.349Z,79.50
2019-02-08T08:52:49.304Z,79.49
2019-02-08T08:55:57.903Z,79.73
2019-02-08T08:59:07.313Z,79.82
2019-02-08T09:02:04.814Z,79.82
2019-02-08T09:05:02.496Z,80.06
2019-02-08T09:08:01.130Z,80.26
2019-02-08T09:11:06.044Z,80.31
2019-02-08T09:14:18.918Z,80.41
2019-02-08T09:17:24.697Z,80.31
2019-02-08T09:20:24.320Z,80.43
2019-02-08T09:23:07.217Z,80.63
2019-02-08T09:26:05.456Z,80.67
2019-02-08T09:29:08.210Z,80.67
2019-02-08T09:32:09.431Z,80.65
2019-02-08T09:35:28.534Z,80.63
2019-02-08T09:38:37.813Z,80.84
2019-02-08T09:41:18.664Z,80.86
2019-02-08T09:44:33.244Z,81.19
2019-02-08T09:47:41.588Z,81.55
2019-02-08T09:50:47.244Z,81.56
2019-02-08T09:53:44.242Z,81.89
2019-02-08T09:56:42.131Z,82.29
2019-02-08T09:59:52.010Z,82.45
2019-02-08T10:02:46.089Z,82.77
2019-02-08T10:06:01.122Z,82.99
2019-02-08T10:09:07.518Z,83.10
2019-02-08T10:12:22.559Z,83.40
2019-02-08T10:15:28.151Z,83.65
2019-02-08T10:18:33.397Z,84.27
2019-02-08T10:21:53.799Z,84.65
2019-02-08T10:24:58.569Z,84.85
2019-02-08T10:28:07.449Z,84.90
2019-02-08T10:31:20.689Z,85.14
2019-02-08T10:34:25.063Z,85.32
2019-02-08T10:37:52.420Z,85.37
2019-02-08T10:41:10.318Z,85.39
2019-02-08T10:44:20.275Z,85.47
2019-02-08T10:47:27.899Z,85.49
2019-02-08T10:50:34.101Z,86.02
2019-02-08T10:53:32.944Z,86.48
2019-02-08T10:56:44.941Z,86.67
2019-02-08T11:00:01.221Z,87.21
2019-02-08T11:03:00.856Z,87.31
2019-02-08T11:06:06.294Z,87.79
2019-02-08T11:09:06.848Z,87.98
2019-02-08T11:12:18.576Z,88.23
2019-02-08T11:15:35.871Z,88.46
2019-02-08T11:18:55.867Z,89.05
2019-02-08T11:21:26.734Z,89.01
2019-02-08T11:23:55.547Z,89.01
2019-02-08T11:26:24.646Z,88.78
2019-02-08T11:28:53.373Z,88.61
2019-02-08T11:31:22.241Z,88.42
2019-02-08T11:33:51.034Z,88.50
2019-02-08T11:36:20.243Z,88.68
2019-02-08T11:38:49.037Z,89.05
2019-02-08T11:41:17.998Z,89.59
2019-02-08T11:43:46.915Z,89.49
2019-02-08T11:46:15.966Z,89.87
2019-02-08T11:48:44.862Z,89.82
2019-02-08T11:51:14.870Z,89.64
2019-02-08T11:53:44.262Z,89.67
2019-02-08T11:56:13.320Z,89.58
2019-02-08T11:58:42.106Z,89.51
2019-02-08T12:01:17.295Z,89.45
2019-02-08T12:03:46.179Z,89.25
2019-02-08T12:06:15.035Z,89.24
2019-02-08T12:08:44.568Z,89.29
2019-02-08T12:11:13.409Z,88.95
2019-02-08T12:13:42.262Z,88.83
2019-02-08T12:16:11.198Z,88.54
2019-02-08T12:18:40.074Z,88.26
2019-02-08T12:21:09.543Z,88.37
2019-02-08T12:23:38.383Z,88.40
2019-02-08T12:26:07.407Z,88.54
2019-02-08T12:28:36.241Z,88.59
2019-02-08T12:31:05.198Z,88.48
2019-02-08T12:33:34.335Z,88.39
2019-02-08T12:36:03.331Z,88.22
2019-02-08T12:38:32.405Z,88.28
2019-02-08T12:41:01.549Z,88.10
2019-02-08T12:43:30.376Z,88.13
2019-02-08T12:45:59.632Z,88.13
2019-02-08T12:48:28.776Z,88.09
2019-02-08T12:50:57.519Z,87.83
2019-02-08T12:53:26.572Z,88.19
2019-02-08T12:55:55.521Z,88.29
2019-02-08T12:58:24.310Z,88.96
2019-02-08T13:00:53.424Z,89.14
2019-02-08T13:03:22.448Z,89.48
2019-02-08T13:05:51.431Z,89.70
2019-02-08T13:08:20.389Z,89.66
2019-02-08T13:10:49.422Z,89.83
2019-02-08T13:13:18.238Z,90.01
2019-02-08T13:15:47.159Z,89.71
2019-02-08T13:18:15.917Z,89.89
2019-02-08T13:20:45.069Z,90.08
2019-02-08T13:23:14.530Z,90.06
2019-02-08T13:25:43.500Z,90.38
2019-02-08T13:28:13.904Z,90.09
2019-02-08T13:30:42.736Z,90.27
2019-02-08T13:33:11.787Z,90.55
2019-02-08T13:35:40.706Z,90.70
2019-02-08T13:38:12.065Z,90.78
2019-02-08T13:40:40.842Z,90.17
2019-02-08T13:43:09.770Z,89.92
2019-02-08T13:45:40.066Z,89.82
2019-02-08T13:48:09.039Z,89.77
2019-02-08T13:50:38.089Z,89.61
2019-02-08T13:53:07.057Z,89.47
2019-02-08T13:55:35.940Z,89.33
2019-02-08T13:58:06.150Z,88.81
2019-02-08T14:00:38.545Z,88.65
2019-02-08T14:03:07.948Z,88.20
2019-02-08T14:05:38.739Z,88.30
2019-02-08T14:08:07.815Z,88.18
2019-02-08T14:10:36.679Z,87.54
2019-02-08T14:13:05.856Z,87.09
2019-02-08T14:15:35.169Z,86.88
2019-02-08T14:18:04.120Z,86.60
2019-02-08T14:20:33.132Z,86.21
2019-02-08T14:23:02.133Z,85.16
2019-02-08T14:25:30.978Z,85.42
2019-02-08T14:28:00.111Z,84.73
2019-02-08T14:30:31.742Z,84.79
2019-02-08T14:33:00.710Z,84.54
2019-02-08T14:35:29.941Z,84.85
2019-02-08T14:37:59.514Z,85.02
2019-02-08T14:40:28.512Z,84.41
2019-02-08T14:42:57.584Z,84.09
2019-02-08T14:45:26.534Z,84.15
2019-02-08T14:47:55.503Z,83.93
2019-02-08T14:50:25.064Z,83.30
2019-02-08T14:52:54.234Z,82.78
2019-02-08T14:55:23.186Z,82.62
2019-02-08T14:57:53.472Z,81.94
2019-02-08T15:00:22.711Z,82.45
2019-02-08T15:02:51.693Z,81.76
2019-02-08T15:05:21.147Z,81.84
2019-02-08T15:07:51.857Z,81.48
2019-02-08T15:10:26.886Z,81.07
2019-02-08T15:12:56.082Z,81.26
2019-02-08T15:15:25.769Z,81.39
2019-02-08T15:17:54.723Z,81.19
2019-02-08T15:20:26.001Z,81.57
2019-02-08T15:22:55.376Z,81.65
2019-02-08T15:25:24.310Z,81.11
2019-02-08T15:27:56.563Z,81.07
2019-02-08T15:30:28.071Z,80.99
2019-02-08T15:32:57.398Z,81.35
2019-02-08T15:35:26.976Z,82.56
2019-02-08T15:37:56.083Z,83.55
2019-02-08T15:40:32.383Z,83.37
2019-02-08T15:43:01.808Z,84.16
2019-02-08T15:45:32.399Z,84.20
2019-02-08T15:48:01.428Z,84.62
2019-02-08T15:50:30.540Z,84.58
2019-02-08T15:52:59.766Z,85.07
2019-02-08T15:55:30.764Z,84.61
2019-02-08T15:58:00.839Z,84.66
2019-02-08T16:00:30.227Z,84.32
2019-02-08T16:03:07.405Z,84.82
2019-02-08T16:05:36.403Z,85.12
2019-02-08T16:08:06.536Z,84.92
2019-02-08T16:10:36.163Z,85.07
2019-02-08T16:13:05.148Z,84.97
2019-02-08T16:15:34.081Z,85.12
2019-02-08T16:18:03.305Z,85.36
2019-02-08T16:20:32.195Z,85.51
2019-02-08T16:23:01.433Z,85.19
2019-02-08T16:25:32.531Z,85.32
2019-02-08T16:28:01.768Z,84.83
2019-02-08T16:30:31.746Z,85.17
2019-02-08T16:33:00.743Z,85.30
2019-02-08T16:35:29.980Z,85.51
2019-02-08T16:37:59.028Z,85.55
2019-02-08T16:40:28.504Z,85.41
2019-02-08T16:42:57.614Z,85.52
2019-02-08T16:45:31.536Z,84.93
2019-02-08T16:48:01.172Z,85.42
2019-02-08T16:50:31.396Z,85.06
2019-02-08T16:53:00.728Z,85.31
2019-02-08T16:55:29.786Z,84.89
2019-02-08T16:58:00.372Z,85.01
2019-02-08T17:00:36.124Z,84.62
2019-02-08T17:03:07.528Z,84.55
2019-02-08T17:05:36.511Z,84.69
2019-02-08T17:08:05.780Z,84.90
2019-02-08T17:10:35.272Z,84.64
2019-02-08T17:13:04.803Z,83.93
2019-02-08T17:15:34.156Z,84.21
2019-02-08T17:18:03.070Z,83.72
2019-02-08T17:20:34.489Z,83.59
2019-02-08T17:23:03.675Z,83.81
2019-02-08T17:25:32.557Z,83.73
2019-02-08T17:28:03.142Z,83.48
2019-02-08T17:30:32.080Z,83.49
2019-02-08T17:33:19.775Z,83.14
2019-02-08T17:35:48.762Z,82.93
2019-02-08T17:38:19.623Z,82.66
2019-02-08T17:40:50.481Z,82.55
2019-02-08T17:43:19.474Z,81.83
2019-02-08T17:45:48.363Z,82.06
2019-02-08T17:48:17.336Z,82.13
2019-02-08T17:50:46.112Z,81.83
2019-02-08T17:53:15.163Z,81.32
2019-02-08T17:55:44.030Z,81.15
2019-02-08T17:58:13.008Z,80.76
2019-02-08T18:00:51.244Z,80.74
2019-02-08T18:03:21.425Z,80.27
2019-02-08T18:05:50.305Z,80.40
2019-02-08T18:08:19.408Z,80.51
2019-02-08T18:17:44.570Z,80.00
2019-02-08T18:20:19.702Z,79.21
2019-02-08T18:22:48.596Z,78.77
2019-02-08T18:25:18.996Z,79.01
2019-02-08T18:27:47.866Z,78.65
2019-02-08T18:30:18.958Z,78.41
2019-02-08T18:32:48.140Z,78.64
2019-02-08T18:35:17.091Z,78.71
2019-02-08T18:37:46.175Z,78.71
2019-02-08T18:40:16.994Z,78.31
2019-02-08T18:42:46.142Z,78.70
2019-02-08T18:45:20.088Z,78.45
2019-02-08T18:47:49.108Z,78.29
2019-02-08T18:50:24.450Z,78.30
2019-02-08T18:52:53.401Z,78.50
2019-02-08T18:55:22.243Z,78.50
2019-02-08T18:57:51.430Z,78.12
2019-02-08T19:00:23.178Z,78.29
2019-02-08T19:02:52.081Z,78.33
2019-02-08T19:05:22.074Z,78.25
2019-02-08T19:07:51.025Z,77.99
2019-02-08T19:10:20.174Z,77.90
2019-02-08T19:12:49.159Z,77.80
2019-02-08T19:15:19.320Z,77.52
2019-02-08T19:17:48.284Z,77.85
2019-02-08T19:20:19.054Z,77.69
2019-02-08T19:22:48.033Z,77.86
2019-02-08T19:25:19.681Z,77.70
2019-02-08T19:27:48.779Z,77.59
2019-02-08T19:30:20.016Z,77.69
2019-02-08T19:32:49.282Z,77.40
2019-02-08T19:35:21.192Z,77.27
2019-02-08T19:37:50.207Z,76.96
2019-02-08T19:40:22.277Z,77.33
2019-02-08T19:42:51.156Z,77.44
2019-02-08T19:45:20.335Z,77.08
2019-02-08T19:47:51.425Z,76.96
2019-02-08T19:50:40.279Z,77.18
2019-02-08T19:53:09.735Z,77.05
2019-02-08T19:55:39.046Z,77.29
2019-02-08T19:58:16.266Z,76.81
2019-02-08T20:00:45.506Z,77.13
2019-02-08T20:03:14.516Z,76.90
2019-02-08T20:05:45.703Z,76.63
2019-02-08T20:08:14.951Z,76.64
2019-02-08T20:10:45.652Z,76.75
2019-02-08T20:13:14.915Z,76.26
2019-02-08T20:15:44.691Z,76.36
2019-02-08T20:18:14.313Z,76.50
2019-02-08T20:20:43.329Z,76.58
2019-02-08T20:23:12.321Z,76.03
2019-02-08T20:25:41.262Z,76.39
2019-02-08T20:28:10.421Z,75.82
2019-02-08T20:30:39.372Z,76.33
2019-02-08T20:33:08.413Z,75.99
2019-02-08T20:35:37.300Z,75.89
2019-02-08T20:38:07.526Z,76.14
2019-02-08T20:40:38.770Z,76.23
2019-02-08T20:43:07.730Z,75.71
2019-02-08T20:45:37.171Z,76.16
2019-02-08T20:48:09.024Z,76.25
2019-02-08T20:50:38.229Z,76.21
2019-02-08T20:53:07.252Z,75.95
2019-02-08T20:55:36.515Z,75.94
2019-02-08T20:58:09.015Z,76.19
2019-02-08T21:00:38.872Z,76.21
2019-02-08T21:03:12.880Z,76.10
2019-02-08T21:05:43.059Z,75.85
2019-02-08T21:08:12.842Z,75.78
2019-02-08T21:10:42.054Z,75.78
2019-02-08T21:13:11.866Z,75.64
2019-02-08T21:15:41.220Z,75.81
2019-02-08T21:18:10.859Z,75.45
2019-02-08T21:20:41.554Z,75.57
2019-02-08T21:23:11.821Z,75.70
2019-02-08T21:25:41.057Z,75.51
2019-02-08T21:28:09.986Z,75.20
2019-02-08T21:30:38.956Z,75.29
2019-02-08T21:33:09.881Z,75.44
2019-02-08T21:35:38.760Z,75.34
2019-02-08T21:38:08.704Z,75.42
2019-02-08T21:40:38.355Z,75.00
2019-02-08T21:43:07.982Z,74.71
2019-02-08T21:45:37.703Z,75.31
2019-02-08T21:48:08.201Z,75.00
2019-02-08T21:50:37.190Z,75.33
2019-02-08T21:53:06.465Z,75.13
2019-02-08T21:55:35.644Z,75.13
2019-02-08T21:58:05.055Z,74.80
2019-02-08T22:00:35.667Z,75.05
2019-02-08T22:03:05.533Z,75.01
2019-02-08T22:05:40.631Z,74.91
2019-02-08T22:08:09.530Z,75.04
2019-02-08T22:10:38.639Z,74.98
2019-02-08T22:13:07.533Z,74.91
2019-02-08T22:15:36.915Z,74.95
2019-02-08T22:18:07.053Z,74.69
2019-02-08T22:20:35.994Z,74.94
2019-02-08T22:23:05.622Z,74.47
2019-02-08T22:25:34.993Z,74.34
2019-02-08T22:28:16.236Z,74.59
2019-02-08T22:30:45.235Z,74.47
2019-02-08T22:33:22.864Z,74.34
2019-02-08T22:36:11.676Z,74.40
2019-02-08T22:38:40.546Z,74.34
2019-02-08T22:41:09.541Z,74.89
2019-02-08T22:43:39.217Z,74.40
2019-02-08T22:46:08.016Z,74.39
2019-02-08T22:48:36.784Z,74.65
2019-02-08T22:51:05.726Z,74.32
2019-02-08T22:53:34.780Z,74.40
2019-02-08T22:56:04.032Z,74.36
2019-02-08T22:58:33.036Z,73.93
2019-02-08T23:01:32.274Z,73.98
2019-02-08T23:04:02.186Z,74.11
2019-02-08T23:06:31.203Z,74.28
2019-02-08T23:09:00.831Z,74.17
2019-02-08T23:11:30.335Z,74.00
2019-02-08T23:13:59.261Z,73.70
2019-02-08T23:16:28.509Z,73.62
2019-02-08T23:18:57.305Z,73.78
2019-02-08T23:21:27.505Z,73.93
2019-02-08T23:23:56.387Z,74.06
2019-02-08T23:26:25.221Z,74.00
2019-02-08T23:28:54.071Z,73.77
2019-02-08T23:31:22.978Z,73.86
2019-02-08T23:33:52.242Z,74.10
2019-02-08T23:36:21.081Z,74.32
2019-02-08T23:38:50.385Z,73.47
2019-02-08T23:41:19.123Z,73.52
2019-02-08T23:43:47.980Z,73.40
2019-02-08T23:46:16.941Z,73.88
2019-02-08T23:48:45.796Z,73.54
2019-02-08T23:51:14.681Z,73.66
2019-02-08T23:53:43.848Z,73.69
2019-02-08T23:56:12.691Z,74.27
2019-02-08T23:58:41.476Z,73.93
